Time;durP1;ratioP1;P1;durP2;ratioP2;P2;SDS_P1;SDS_P2;PMS_P1;PMS_P2;Temp;Humidity;BMP_temperature;BMP_pressure;BME280_temperature;BME280_humidity;BME280_pressure;Samples;Min_cycle;Max_cycle;Signal;HPM_P1;HPM_P2
2021/03/23 00:00:11;;;;;;;23.40;14.20;;;4.60;99.90;;;;;;494058;241;27565;-75
2021/03/23 00:02:12;;;;;;;25.45;14.30;;;4.70;99.90;;;;;;494062;241;27458;-75
2021/03/23 00:04:14;;;;;;;22.42;14.63;;;4.60;99.90;;;;;;494065;241;27958;-76
2021/03/23 00:06:15;;;;;;;23.87;14.27;;;4.60;99.90;;;;;;494080;241;27996;-76
2021/03/23 00:08:16;;;;;;;20.95;13.15;;;4.60;99.90;;;;;;494018;237;27578;-75
2021/03/23 00:10:17;;;;;;;21.50;14.05;;;4.60;99.90;;;;;;494070;241;27469;-76
2021/03/23 00:12:19;;;;;;;22.25;14.60;;;4.60;99.90;;;;;;494070;241;27463;-75
2021/03/23 00:14:20;;;;;;;24.55;14.48;;;4.70;99.90;;;;;;494076;241;28033;-75
2021/03/23 00:16:21;;;;;;;22.58;15.00;;;4.70;99.90;;;;;;494090;241;27937;-75
2021/03/23 00:18:23;;;;;;;21.15;14.25;;;4.70;99.90;;;;;;494122;241;27502;-76
2021/03/23 00:20:24;;;;;;;23.52;15.25;;;4.60;99.90;;;;;;494087;241;27483;-75
2021/03/23 00:22:25;;;;;;;22.90;14.52;;;4.70;99.90;;;;;;494095;240;27456;-75
2021/03/23 00:24:26;;;;;;;21.00;13.82;;;4.70;99.90;;;;;;494053;241;27469;-75
2021/03/23 00:26:28;;;;;;;26.00;15.18;;;4.70;99.90;;;;;;494034;241;27915;-74
2021/03/23 00:28:29;;;;;;;20.45;13.70;;;4.60;99.90;;;;;;494075;241;27482;-75
2021/03/23 00:30:30;;;;;;;21.12;13.88;;;4.50;99.90;;;;;;494115;241;27497;-75
2021/03/23 00:32:31;;;;;;;22.45;14.05;;;4.50;99.90;;;;;;494079;241;27454;-75
2021/03/23 00:34:33;;;;;;;24.60;14.55;;;4.50;99.90;;;;;;494069;241;27534;-75
2021/03/23 00:36:34;;;;;;;27.80;15.27;;;4.60;99.90;;;;;;494068;241;27571;-75
2021/03/23 00:38:35;;;;;;;23.15;13.85;;;4.60;99.90;;;;;;494056;241;28009;-74
2021/03/23 00:40:36;;;;;;;22.25;13.75;;;4.50;99.90;;;;;;494069;241;28015;-75
2021/03/23 00:42:38;;;;;;;23.23;13.98;;;4.60;99.90;;;;;;494088;241;27470;-75
2021/03/23 00:44:39;;;;;;;23.70;14.23;;;4.50;99.90;;;;;;494052;241;27555;-76
2021/03/23 00:46:40;;;;;;;24.55;15.43;;;4.60;99.90;;;;;;494049;241;27532;-75
2021/03/23 00:48:41;;;;;;;23.85;15.57;;;4.60;99.90;;;;;;494073;241;27472;-75
2021/03/23 00:50:43;;;;;;;21.62;14.05;;;4.60;99.90;;;;;;494096;241;27955;-75
2021/03/23 00:52:44;;;;;;;21.50;13.88;;;4.60;99.90;;;;;;494077;241;27945;-75
2021/03/23 00:54:45;;;;;;;22.05;13.68;;;4.60;99.90;;;;;;494049;241;27456;-75
2021/03/23 00:56:46;;;;;;;27.60;12.60;;;4.60;99.90;;;;;;494055;241;27543;-75
2021/03/23 00:58:48;;;;;;;18.48;12.55;;;4.50;99.90;;;;;;493975;241;27573;-74
2021/03/23 01:00:49;;;;;;;18.05;12.60;;;4.50;99.90;;;;;;493992;241;27468;-74
2021/03/23 01:02:50;;;;;;;16.80;11.02;;;4.50;99.90;;;;;;493994;241;28010;-74
2021/03/23 01:04:52;;;;;;;16.83;11.10;;;4.50;99.90;;;;;;493975;241;27921;-75
2021/03/23 01:06:53;;;;;;;19.10;11.73;;;4.40;99.90;;;;;;494023;241;27499;-74
2021/03/23 01:08:54;;;;;;;20.00;13.13;;;4.40;99.90;;;;;;494055;241;27585;-74
2021/03/23 01:10:55;;;;;;;21.45;13.50;;;4.40;99.90;;;;;;494048;241;27476;-75
2021/03/23 01:12:57;;;;;;;21.55;13.98;;;4.50;99.90;;;;;;494062;241;27465;-75
2021/03/23 01:14:58;;;;;;;22.92;14.55;;;4.50;99.90;;;;;;494058;241;27489;-75
2021/03/23 01:16:59;;;;;;;22.40;14.23;;;4.50;99.90;;;;;;494036;241;28026;-75
2021/03/23 01:19:00;;;;;;;23.90;14.20;;;4.50;99.90;;;;;;494053;241;28123;-75
2021/03/23 01:21:02;;;;;;;25.67;15.40;;;4.50;99.90;;;;;;494047;241;27467;-75
2021/03/23 01:23:03;;;;;;;22.80;14.43;;;4.50;99.90;;;;;;494065;240;27482;-75
2021/03/23 01:25:04;;;;;;;23.60;15.30;;;4.50;99.90;;;;;;494007;241;27534;-75
2021/03/23 01:27:05;;;;;;;26.75;15.77;;;4.60;99.90;;;;;;494068;239;27470;-75
2021/03/23 01:29:07;;;;;;;23.60;14.80;;;4.60;99.90;;;;;;494072;241;27926;-74
2021/03/23 01:31:08;;;;;;;25.12;15.05;;;4.50;99.90;;;;;;494030;241;27931;-73
2021/03/23 01:33:09;;;;;;;23.12;15.15;;;4.50;99.90;;;;;;494067;241;27461;-73
2021/03/23 01:35:10;;;;;;;22.25;15.18;;;4.50;99.90;;;;;;494047;241;27479;-73
2021/03/23 01:37:12;;;;;;;19.50;14.55;;;4.50;99.90;;;;;;494054;241;27463;-73
2021/03/23 01:39:13;;;;;;;24.15;13.25;;;4.50;99.90;;;;;;494071;241;27470;-73
2021/03/23 01:41:14;;;;;;;21.20;13.77;;;4.50;99.90;;;;;;494072;241;27561;-73
2021/03/23 01:43:15;;;;;;;26.10;13.95;;;4.50;99.90;;;;;;494070;241;27944;-73
2021/03/23 01:45:17;;;;;;;20.42;13.95;;;4.50;99.90;;;;;;494056;241;27467;-74
2021/03/23 01:47:18;;;;;;;21.83;11.88;;;4.50;99.90;;;;;;494072;240;27561;-72
2021/03/23 01:49:19;;;;;;;21.65;14.40;;;4.50;99.90;;;;;;494104;241;27463;-73
2021/03/23 01:51:20;;;;;;;18.67;13.30;;;4.50;99.90;;;;;;494104;241;27562;-72
2021/03/23 01:53:22;;;;;;;22.10;13.95;;;4.50;99.90;;;;;;494056;241;27498;-72
2021/03/23 01:55:23;;;;;;;21.60;14.00;;;4.40;99.90;;;;;;494062;241;28039;-73
2021/03/23 01:57:24;;;;;;;21.60;14.40;;;4.40;99.90;;;;;;494063;240;28024;-75
2021/03/23 01:59:25;;;;;;;22.75;13.13;;;4.50;99.90;;;;;;494047;241;27463;-76
2021/03/23 02:01:27;;;;;;;19.75;13.25;;;4.50;99.90;;;;;;494052;241;27482;-75
2021/03/23 02:03:28;;;;;;;20.05;12.70;;;4.50;99.90;;;;;;494016;241;27475;-75
2021/03/23 02:05:29;;;;;;;18.52;11.82;;;4.40;99.90;;;;;;494032;241;27469;-74
2021/03/23 02:07:31;;;;;;;19.80;13.13;;;4.40;99.90;;;;;;494033;241;27476;-75
2021/03/23 02:09:32;;;;;;;17.15;12.20;;;4.40;99.90;;;;;;494033;241;27944;-75
2021/03/23 02:11:33;;;;;;;21.35;13.30;;;4.40;99.90;;;;;;494038;241;28034;-75
2021/03/23 02:13:34;;;;;;;25.10;13.27;;;4.50;99.90;;;;;;494049;241;27574;-74
2021/03/23 02:15:36;;;;;;;21.40;14.35;;;4.50;99.90;;;;;;494045;241;27573;-75
2021/03/23 02:17:37;;;;;;;23.65;13.10;;;4.50;99.90;;;;;;494058;241;27489;-75
2021/03/23 02:19:38;;;;;;;18.83;12.77;;;4.50;99.90;;;;;;494066;241;27573;-75
2021/03/23 02:21:39;;;;;;;20.60;13.10;;;4.40;99.90;;;;;;494063;241;27929;-75
2021/03/23 02:23:41;;;;;;;23.55;13.82;;;4.40;99.90;;;;;;494052;241;27926;-75
2021/03/23 02:25:42;;;;;;;29.63;13.88;;;4.40;99.90;;;;;;494032;241;27441;-75
2021/03/23 02:27:43;;;;;;;25.83;14.20;;;4.40;99.90;;;;;;494074;241;27468;-75
2021/03/23 02:29:44;;;;;;;20.33;13.18;;;4.40;99.90;;;;;;494038;241;27509;-75
2021/03/23 02:31:46;;;;;;;20.75;13.38;;;4.40;99.90;;;;;;494058;241;27473;-74
2021/03/23 02:33:47;;;;;;;23.12;12.98;;;4.40;99.90;;;;;;494057;241;27475;-75
2021/03/23 02:35:48;;;;;;;21.35;12.32;;;4.40;99.90;;;;;;494048;241;27906;-75
2021/03/23 02:37:49;;;;;;;19.52;12.70;;;4.30;99.90;;;;;;494048;240;27935;-74
2021/03/23 02:39:51;;;;;;;19.20;12.55;;;4.30;99.90;;;;;;494033;241;27475;-75
2021/03/23 02:41:52;;;;;;;22.60;13.93;;;4.30;99.90;;;;;;494038;241;27562;-75
2021/03/23 02:43:53;;;;;;;20.60;13.35;;;4.30;99.90;;;;;;494046;241;27484;-75
2021/03/23 02:45:54;;;;;;;19.73;13.13;;;4.30;99.90;;;;;;494044;241;27541;-75
2021/03/23 02:47:56;;;;;;;18.70;12.57;;;4.30;99.90;;;;;;494070;241;28001;-75
2021/03/23 02:49:57;;;;;;;19.05;12.65;;;4.30;99.90;;;;;;494039;241;28022;-75
2021/03/23 02:51:58;;;;;;;19.17;13.00;;;4.40;99.90;;;;;;494064;241;27446;-74
2021/03/23 02:53:59;;;;;;;24.95;14.18;;;4.40;99.90;;;;;;494045;241;27571;-75
2021/03/23 02:56:01;;;;;;;21.40;14.00;;;4.40;99.90;;;;;;494071;241;27524;-75
2021/03/23 02:58:02;;;;;;;19.77;13.32;;;4.40;99.90;;;;;;494081;241;27450;-75
2021/03/23 03:00:03;;;;;;;22.15;13.88;;;4.40;99.90;;;;;;494074;241;27959;-75
2021/03/23 03:02:05;;;;;;;19.05;13.27;;;4.30;99.90;;;;;;494026;241;27941;-75
2021/03/23 03:04:06;;;;;;;26.00;15.13;;;4.30;99.90;;;;;;494045;241;27486;-75
2021/03/23 03:06:07;;;;;;;20.05;14.38;;;4.30;99.90;;;;;;494044;241;27455;-75
2021/03/23 03:08:08;;;;;;;24.00;14.43;;;4.30;99.90;;;;;;494025;241;27575;-75
2021/03/23 03:10:10;;;;;;;22.48;13.32;;;4.30;99.90;;;;;;494058;241;27463;-75
2021/03/23 03:12:11;;;;;;;21.80;14.18;;;4.20;99.90;;;;;;494043;241;27574;-75
2021/03/23 03:14:12;;;;;;;21.62;14.45;;;4.30;99.90;;;;;;494042;241;27469;-75
2021/03/23 03:16:13;;;;;;;24.27;13.70;;;4.30;99.90;;;;;;494044;241;27947;-74
2021/03/23 03:18:15;;;;;;;20.33;12.98;;;4.30;99.90;;;;;;494026;241;27958;-75
2021/03/23 03:20:16;;;;;;;19.30;13.05;;;4.30;99.90;;;;;;494044;241;27469;-75
2021/03/23 03:22:17;;;;;;;22.08;13.62;;;4.20;99.90;;;;;;494037;241;27456;-74
2021/03/23 03:24:18;;;;;;;22.30;13.80;;;4.20;99.90;;;;;;494036;241;27458;-76
2021/03/23 03:26:20;;;;;;;18.62;13.27;;;4.10;99.90;;;;;;494034;241;27461;-75
2021/03/23 03:28:21;;;;;;;20.00;13.23;;;4.10;99.90;;;;;;494047;241;27577;-75
2021/03/23 03:30:22;;;;;;;18.73;12.93;;;4.10;99.90;;;;;;494031;241;27934;-75
2021/03/23 03:32:23;;;;;;;21.58;13.50;;;4.10;99.90;;;;;;494052;241;27473;-74
2021/03/23 03:34:25;;;;;;;22.35;13.05;;;4.10;99.90;;;;;;494036;241;27482;-76
2021/03/23 03:36:26;;;;;;;18.85;12.73;;;4.10;99.90;;;;;;494026;241;27569;-75
2021/03/23 03:38:27;;;;;;;21.55;13.68;;;4.20;99.90;;;;;;494033;241;27479;-75
2021/03/23 03:40:28;;;;;;;22.75;13.00;;;4.10;99.90;;;;;;494046;240;27477;-75
2021/03/23 03:42:30;;;;;;;20.85;13.45;;;4.20;99.90;;;;;;494086;241;28002;-75
2021/03/23 03:44:31;;;;;;;26.25;14.77;;;4.20;99.90;;;;;;494026;241;28023;-75
2021/03/23 03:46:32;;;;;;;22.02;13.73;;;4.30;99.90;;;;;;494017;241;27460;-75
2021/03/23 03:48:33;;;;;;;23.65;13.93;;;4.30;99.90;;;;;;494048;241;27619;-74
2021/03/23 03:50:35;;;;;;;18.55;12.70;;;4.30;99.90;;;;;;494026;241;27515;-75
2021/03/23 03:52:36;;;;;;;25.35;13.75;;;4.30;99.90;;;;;;494049;241;27586;-76
2021/03/23 03:54:37;;;;;;;19.08;13.27;;;4.30;99.90;;;;;;494043;241;27550;-75
2021/03/23 03:56:38;;;;;;;20.08;12.88;;;4.20;99.90;;;;;;494047;241;27943;-74
2021/03/23 03:58:40;;;;;;;22.83;13.88;;;4.20;99.90;;;;;;494057;241;29011;-74
2021/03/23 04:00:41;;;;;;;22.00;13.80;;;4.20;99.90;;;;;;494057;241;27473;-74
2021/03/23 04:02:42;;;;;;;23.05;14.18;;;4.20;99.90;;;;;;494061;240;27468;-75
2021/03/23 04:04:45;;;;;;;21.00;13.20;;;4.20;99.90;;;;;;494082;241;27451;-74
2021/03/23 04:06:45;;;;;;;19.77;13.95;;;4.10;99.90;;;;;;493939;240;27506;-75
2021/03/23 04:08:46;;;;;;;19.20;13.27;;;4.10;99.90;;;;;;494055;241;27566;-75
2021/03/23 04:10:47;;;;;;;23.02;12.50;;;4.10;99.90;;;;;;494080;241;27999;-75
2021/03/23 04:12:49;;;;;;;19.33;13.55;;;4.20;99.90;;;;;;494092;241;27919;-76
2021/03/23 04:14:50;;;;;;;19.48;13.20;;;4.10;99.90;;;;;;494093;241;27450;-75
2021/03/23 04:16:51;;;;;;;25.58;12.82;;;4.10;99.90;;;;;;494065;241;27501;-74
2021/03/23 04:18:52;;;;;;;22.55;13.57;;;4.10;99.90;;;;;;494081;241;27469;-76
2021/03/23 04:20:54;;;;;;;20.33;14.70;;;4.20;99.90;;;;;;494111;241;27467;-74
2021/03/23 04:22:55;;;;;;;19.23;12.85;;;4.20;99.90;;;;;;494095;241;27575;-74
2021/03/23 04:24:56;;;;;;;20.65;14.80;;;4.20;99.90;;;;;;494059;239;28308;-74
2021/03/23 04:26:58;;;;;;;25.98;13.50;;;4.20;99.90;;;;;;494058;241;28029;-75
2021/03/23 04:28:59;;;;;;;21.12;13.20;;;4.10;99.90;;;;;;494039;241;27551;-75
2021/03/23 04:31:00;;;;;;;20.40;12.43;;;4.10;99.90;;;;;;494047;241;27548;-74
2021/03/23 04:33:01;;;;;;;18.98;12.18;;;4.00;99.90;;;;;;494065;241;27466;-75
2021/03/23 04:35:02;;;;;;;21.48;12.05;;;4.00;99.90;;;;;;494047;241;27541;-75
2021/03/23 04:37:04;;;;;;;18.12;12.93;;;4.00;99.90;;;;;;494066;239;27474;-75
2021/03/23 04:39:05;;;;;;;20.05;12.35;;;4.00;99.90;;;;;;494045;241;28021;-74
2021/03/23 04:41:06;;;;;;;20.20;13.18;;;3.90;99.90;;;;;;494046;241;29008;-75
2021/03/23 04:43:07;;;;;;;19.70;13.27;;;3.90;99.90;;;;;;494042;241;27565;-74
2021/03/23 04:45:09;;;;;;;22.67;15.02;;;4.00;99.90;;;;;;494061;241;27482;-75
2021/03/23 04:47:10;;;;;;;22.37;13.82;;;4.00;99.90;;;;;;494054;241;27464;-74
2021/03/23 04:49:11;;;;;;;19.30;12.90;;;4.00;99.90;;;;;;494036;241;27566;-75
2021/03/23 04:51:12;;;;;;;20.80;12.82;;;4.00;99.90;;;;;;494051;241;27459;-75
2021/03/23 04:53:14;;;;;;;16.62;11.95;;;4.00;99.90;;;;;;494057;241;27459;-74
2021/03/23 04:55:15;;;;;;;17.50;12.43;;;3.90;99.90;;;;;;494026;241;27946;-75
2021/03/23 04:57:16;;;;;;;19.98;12.80;;;3.90;99.90;;;;;;494051;241;29144;-75
2021/03/23 04:59:17;;;;;;;19.48;12.60;;;3.90;99.90;;;;;;494051;241;27459;-74
2021/03/23 05:01:19;;;;;;;19.37;12.93;;;4.00;99.90;;;;;;494036;241;27477;-76
2021/03/23 05:03:20;;;;;;;23.08;13.13;;;4.00;99.90;;;;;;494057;241;27571;-75
2021/03/23 05:05:21;;;;;;;19.58;13.00;;;4.00;99.90;;;;;;494038;240;27484;-74
2021/03/23 05:07:23;;;;;;;23.33;13.32;;;4.00;99.90;;;;;;494026;241;27474;-75
2021/03/23 05:09:24;;;;;;;19.35;13.73;;;4.10;99.90;;;;;;494050;241;28390;-75
2021/03/23 05:11:25;;;;;;;20.42;13.70;;;4.10;99.90;;;;;;494048;241;27953;-75
2021/03/23 05:13:26;;;;;;;22.20;13.80;;;4.10;99.90;;;;;;494038;241;27479;-75
2021/03/23 05:15:28;;;;;;;19.62;12.48;;;4.10;99.90;;;;;;494045;241;27460;-75
2021/03/23 05:17:29;;;;;;;22.40;13.18;;;4.10;99.90;;;;;;494047;241;27490;-75
2021/03/23 05:19:30;;;;;;;21.00;13.35;;;4.10;99.90;;;;;;494047;241;27470;-74
2021/03/23 05:21:31;;;;;;;23.33;13.10;;;4.10;99.90;;;;;;494030;241;27498;-75
2021/03/23 05:23:33;;;;;;;22.45;12.80;;;4.00;99.90;;;;;;494046;241;28029;-75
2021/03/23 05:25:34;;;;;;;22.50;13.90;;;4.10;99.90;;;;;;494032;241;27953;-75
2021/03/23 05:27:35;;;;;;;20.37;13.20;;;4.10;99.90;;;;;;494036;241;27475;-74
2021/03/23 05:29:36;;;;;;;18.65;11.38;;;4.10;99.90;;;;;;494060;241;27494;-74
2021/03/23 05:31:38;;;;;;;20.00;12.45;;;4.10;99.90;;;;;;494045;241;27477;-75
2021/03/23 05:33:39;;;;;;;18.70;12.65;;;4.00;99.90;;;;;;494026;241;27481;-75
2021/03/23 05:35:40;;;;;;;19.87;13.20;;;4.10;99.90;;;;;;494059;240;27456;-75
2021/03/23 05:37:41;;;;;;;19.92;12.63;;;4.00;99.90;;;;;;494060;241;27569;-75
2021/03/23 05:39:43;;;;;;;20.42;13.90;;;4.10;99.90;;;;;;494045;241;28281;-74
2021/03/23 05:41:44;;;;;;;20.55;12.68;;;4.10;99.90;;;;;;494054;241;28014;-75
2021/03/23 05:43:45;;;;;;;21.55;13.25;;;4.10;99.90;;;;;;494045;241;27484;-76
2021/03/23 05:45:46;;;;;;;23.05;13.27;;;4.10;99.90;;;;;;494050;241;27479;-75
2021/03/23 05:47:48;;;;;;;22.73;13.25;;;4.10;99.90;;;;;;494069;241;27458;-75
2021/03/23 05:49:49;;;;;;;24.23;13.18;;;4.20;99.90;;;;;;494048;241;27460;-75
2021/03/23 05:51:50;;;;;;;25.12;14.10;;;4.10;99.90;;;;;;494064;241;27471;-75
2021/03/23 05:53:51;;;;;;;21.65;13.62;;;4.20;99.90;;;;;;494048;241;28068;-75
2021/03/23 05:55:53;;;;;;;21.58;13.43;;;4.10;99.90;;;;;;494049;241;27917;-74
2021/03/23 05:57:54;;;;;;;21.08;13.15;;;4.20;99.90;;;;;;494065;241;27558;-75
2021/03/23 05:59:55;;;;;;;23.77;14.70;;;4.20;99.90;;;;;;494030;241;27501;-75
2021/03/23 06:01:56;;;;;;;21.17;13.52;;;4.20;99.90;;;;;;494041;241;27554;-75
2021/03/23 06:03:58;;;;;;;21.55;13.57;;;4.20;99.90;;;;;;494044;241;27493;-75
2021/03/23 06:05:59;;;;;;;26.77;14.15;;;4.20;99.90;;;;;;494066;241;27494;-75
2021/03/23 06:08:01;;;;;;;20.62;12.50;;;4.30;99.90;;;;;;494042;236;28012;-75
2021/03/23 06:10:02;;;;;;;21.65;14.07;;;4.30;99.90;;;;;;494029;241;28052;-75
2021/03/23 06:12:03;;;;;;;23.50;13.52;;;4.30;99.90;;;;;;494061;241;27575;-74
2021/03/23 06:14:04;;;;;;;17.80;12.70;;;4.30;99.90;;;;;;494038;240;27467;-75
2021/03/23 06:16:05;;;;;;;22.92;12.40;;;4.40;99.90;;;;;;494068;241;27471;-74
2021/03/23 06:18:07;;;;;;;23.00;13.25;;;4.40;99.90;;;;;;494031;241;27572;-75
2021/03/23 06:20:08;;;;;;;25.65;13.50;;;4.40;99.90;;;;;;494057;241;27938;-75
2021/03/23 06:22:09;;;;;;;23.52;12.63;;;4.40;99.90;;;;;;494031;241;29007;-75
2021/03/23 06:24:10;;;;;;;21.75;12.88;;;4.40;99.90;;;;;;494045;241;27467;-75
2021/03/23 06:26:12;;;;;;;21.55;13.15;;;4.50;99.90;;;;;;494046;241;27479;-75
2021/03/23 06:28:13;;;;;;;28.12;14.50;;;4.50;99.90;;;;;;494054;241;27463;-76
2021/03/23 06:30:14;;;;;;;19.27;12.75;;;4.60;99.90;;;;;;494034;241;27491;-75
2021/03/23 06:32:15;;;;;;;19.45;13.18;;;4.60;99.90;;;;;;494031;241;27494;-75
2021/03/23 06:34:17;;;;;;;22.25;12.90;;;4.60;99.90;;;;;;494059;241;28025;-75
2021/03/23 06:36:18;;;;;;;21.20;12.05;;;4.70;99.90;;;;;;494084;241;27925;-76
2021/03/23 06:38:19;;;;;;;19.75;12.35;;;4.70;99.90;;;;;;494036;241;27561;-74
2021/03/23 06:40:20;;;;;;;23.60;13.40;;;4.70;99.90;;;;;;494057;241;27465;-74
2021/03/23 06:42:22;;;;;;;23.60;12.77;;;4.80;99.90;;;;;;494058;241;27592;-74
2021/03/23 06:44:23;;;;;;;27.48;13.68;;;4.80;99.90;;;;;;494057;241;27464;-75
2021/03/23 06:46:24;;;;;;;21.30;12.93;;;4.80;99.90;;;;;;494058;235;27965;-75
2021/03/23 06:48:25;;;;;;;21.75;13.43;;;4.80;99.90;;;;;;494026;241;28016;-74
2021/03/23 06:50:27;;;;;;;21.58;12.55;;;4.90;99.90;;;;;;494073;241;27489;-75
2021/03/23 06:52:28;;;;;;;19.65;12.95;;;4.90;99.90;;;;;;494101;241;27473;-76
2021/03/23 06:54:29;;;;;;;20.48;13.07;;;5.00;99.90;;;;;;494095;241;27470;-74
2021/03/23 06:56:30;;;;;;;25.23;12.75;;;5.10;99.90;;;;;;494080;241;27467;-75
2021/03/23 06:58:32;;;;;;;21.05;12.77;;;5.10;99.90;;;;;;494071;241;28442;-74
2021/03/23 07:00:33;;;;;;;20.80;12.13;;;5.20;99.90;;;;;;494063;241;27933;-75
2021/03/23 07:02:35;;;;;;;23.10;13.40;;;5.20;99.90;;;;;;494068;241;27493;-75
2021/03/23 07:04:38;;;;;;;22.40;13.88;;;5.20;99.90;;;;;;494031;235;27491;-75
2021/03/23 07:06:37;;;;;;;23.30;13.18;;;5.30;99.90;;;;;;493902;240;27470;-75
2021/03/23 07:08:38;;;;;;;23.90;13.45;;;5.30;99.90;;;;;;494048;241;27467;-75
2021/03/23 07:10:40;;;;;;;26.52;13.88;;;5.30;99.90;;;;;;485916;241;27916;-75
2021/03/23 07:12:41;;;;;;;21.83;13.05;;;5.40;99.90;;;;;;485318;245;27599;-76
2021/03/23 07:14:42;;;;;;;20.77;13.02;;;5.50;99.90;;;;;;484762;240;27500;-75
2021/03/23 07:16:43;;;;;;;24.20;13.13;;;5.50;99.90;;;;;;475870;246;27607;-75
2021/03/23 07:18:44;;;;;;;21.98;13.85;;;5.60;99.90;;;;;;484807;245;27972;-75
2021/03/23 07:20:48;;;;;;;21.85;13.65;;;5.60;99.90;;;;;;476186;249;27538;-75
2021/03/23 07:22:47;;;;;;;25.25;14.60;;;5.60;99.90;;;;;;484796;245;27388;-75
2021/03/23 07:24:48;;;;;;;22.52;13.38;;;5.70;99.90;;;;;;476186;243;27521;-76
2021/03/23 07:26:50;;;;;;;22.75;12.75;;;5.70;99.90;;;;;;484862;241;27552;-75
2021/03/23 07:28:51;;;;;;;24.02;13.57;;;5.80;99.90;;;;;;476114;249;27968;-75
2021/03/23 07:30:52;;;;;;;26.87;13.20;;;5.80;99.90;;;;;;484867;245;27464;-75
2021/03/23 07:32:53;;;;;;;23.50;14.18;;;5.90;99.90;;;;;;476204;249;27602;-75
2021/03/23 07:34:55;;;;;;;24.23;13.80;;;5.90;99.90;;;;;;484637;245;27381;-75
2021/03/23 07:36:56;;;;;;;23.10;13.38;;;5.90;99.90;;;;;;476214;249;27664;-76
2021/03/23 07:38:57;;;;;;;26.40;12.90;;;6.00;99.90;;;;;;484887;245;27974;-75
2021/03/23 07:40:58;;;;;;;25.42;13.30;;;6.00;99.90;;;;;;476171;249;27507;-75
2021/03/23 07:43:00;;;;;;;28.15;13.50;;;6.10;99.90;;;;;;484891;245;27493;-76
2021/03/23 07:45:01;;;;;;;23.33;13.25;;;6.10;99.90;;;;;;476225;249;27522;-75
2021/03/23 07:47:03;;;;;;;26.00;14.87;;;6.20;99.90;;;;;;484841;245;27463;-76
2021/03/23 07:49:04;;;;;;;36.72;14.30;;;6.20;99.90;;;;;;476198;249;28061;-76
2021/03/23 07:51:05;;;;;;;25.80;13.07;;;6.30;99.90;;;;;;484898;245;27389;-76
2021/03/23 07:53:06;;;;;;;20.58;11.77;;;6.40;99.90;;;;;;476175;249;27525;-76
2021/03/23 07:55:07;;;;;;;18.87;12.32;;;6.50;99.90;;;;;;484903;245;27393;-75
2021/03/23 07:57:08;;;;;;;20.45;13.45;;;6.50;99.90;;;;;;476222;250;27611;-76
2021/03/23 07:59:10;;;;;;;22.25;11.80;;;6.30;99.90;;;;;;484845;245;28041;-75
2021/03/23 08:01:11;;;;;;;27.95;13.15;;;6.40;99.90;;;;;;476250;250;27519;-76
2021/03/23 08:03:12;;;;;;;22.83;12.98;;;6.40;99.90;;;;;;484935;245;27374;-75
2021/03/23 08:05:14;;;;;;;31.20;14.37;;;6.50;99.90;;;;;;476248;250;27508;-75
2021/03/23 08:07:15;;;;;;;19.73;12.33;;;6.50;99.90;;;;;;484946;244;28546;-76
2021/03/23 08:09:17;;;;;;;24.10;14.30;;;6.50;99.90;;;;;;476211;249;29346;-75
2021/03/23 08:11:17;;;;;;;24.23;14.23;;;6.40;99.90;;;;;;484918;244;29214;-76
2021/03/23 08:13:19;;;;;;;22.23;14.27;;;6.30;99.90;;;;;;476278;249;27686;-75
2021/03/23 08:15:20;;;;;;;25.30;13.50;;;6.40;99.90;;;;;;484882;245;28728;-76
2021/03/23 08:17:21;;;;;;;18.73;13.20;;;6.30;99.90;;;;;;476248;249;28008;-76
2021/03/23 08:19:22;;;;;;;28.07;14.23;;;6.50;99.90;;;;;;484901;245;28717;-76
2021/03/23 08:21:24;;;;;;;25.77;12.83;;;6.50;99.90;;;;;;476209;249;28656;-77
2021/03/23 08:23:25;;;;;;;23.60;14.00;;;6.70;99.90;;;;;;484897;245;27974;-77
2021/03/23 08:25:26;;;;;;;26.33;14.50;;;6.90;99.90;;;;;;476235;249;28469;-75
2021/03/23 08:27:27;;;;;;;21.27;14.30;;;7.00;99.90;;;;;;484860;245;28614;-75
2021/03/23 08:29:29;;;;;;;20.07;12.83;;;6.90;99.90;;;;;;476205;249;29322;-75
2021/03/23 08:31:31;;;;;;;21.40;12.70;;;6.80;99.90;;;;;;484899;245;28038;-77
2021/03/23 08:33:31;;;;;;;20.23;12.80;;;6.70;99.90;;;;;;469560;245;27991;-77
2021/03/23 08:35:32;;;;;;;22.47;13.50;;;6.90;99.90;;;;;;481990;246;27876;-76
2021/03/23 08:37:36;;;;;;;21.90;12.90;;;7.10;99.90;;;;;;479570;248;27862;-79
2021/03/23 08:39:35;;;;;;;20.93;13.67;;;7.20;99.90;;;;;;479428;247;27784;-75
2021/03/23 08:41:36;;;;;;;21.87;13.00;;;7.20;99.90;;;;;;479569;247;27790;-76
2021/03/23 08:43:37;;;;;;;23.23;13.30;;;7.20;99.90;;;;;;479581;248;28033;-75
2021/03/23 08:45:41;;;;;;;21.40;13.20;;;7.20;99.90;;;;;;479517;247;28234;-75
2021/03/23 08:47:40;;;;;;;17.97;12.03;;;7.20;99.90;;;;;;479422;247;28430;-76
2021/03/23 08:49:41;;;;;;;19.77;13.77;;;7.30;99.90;;;;;;479553;247;27649;-78
2021/03/23 08:51:42;;;;;;;18.90;12.20;;;7.50;99.90;;;;;;475115;246;28454;-75
2021/03/23 08:53:44;;;;;;;21.23;13.50;;;7.50;99.90;;;;;;481568;247;28420;-76
2021/03/23 08:55:45;;;;;;;24.37;14.33;;;7.40;99.90;;;;;;475244;250;28605;-76
2021/03/23 08:57:46;;;;;;;19.83;11.63;;;7.50;99.90;;;;;;481502;243;27889;-77
2021/03/23 08:59:48;;;;;;;23.60;13.23;;;7.50;99.90;;;;;;467632;252;27917;-76
2021/03/23 09:01:49;;;;;;;18.80;13.00;;;7.40;99.90;;;;;;481567;247;27606;-76
2021/03/23 09:03:50;;;;;;;19.63;13.03;;;7.40;99.90;;;;;;475200;250;27797;-75
2021/03/23 09:05:53;;;;;;;18.27;11.60;;;7.40;99.90;;;;;;481559;247;27965;-76
2021/03/23 09:07:54;;;;;;;17.90;12.13;;;7.50;99.90;;;;;;467643;252;28019;-77
2021/03/23 09:09:55;;;;;;;22.23;13.63;;;7.60;99.90;;;;;;481477;247;28428;-76
2021/03/23 09:11:56;;;;;;;17.93;12.67;;;7.60;99.90;;;;;;467669;252;28393;-76
2021/03/23 09:13:57;;;;;;;19.53;11.43;;;7.50;99.90;;;;;;481533;247;28434;-76
2021/03/23 09:15:59;;;;;;;17.03;10.70;;;7.70;99.90;;;;;;467569;252;27810;-76
2021/03/23 09:18:05;;;;;;;16.10;11.00;;;7.70;99.90;;;;;;481397;247;27767;-77
2021/03/23 09:20:04;;;;;;;16.67;9.30;;;7.70;99.90;;;;;;467496;250;27655;-76
2021/03/23 09:22:05;;;;;;;15.67;11.00;;;7.50;99.90;;;;;;472899;251;27781;-76
2021/03/23 09:24:06;;;;;;;11.30;8.40;;;7.50;99.90;;;;;;475246;249;28041;-76
2021/03/23 09:26:08;;;;;;;10.87;8.77;;;7.60;99.90;;;;;;474383;248;27931;-76
2021/03/23 09:28:09;;;;;;;12.60;9.20;;;7.70;99.90;;;;;;481612;244;28174;-76
2021/03/23 09:30:10;;;;;;;13.30;9.33;;;7.60;99.90;;;;;;478853;247;28909;-78
2021/03/23 09:32:11;;;;;;;16.43;9.77;;;7.70;99.90;;;;;;478970;247;28326;-76
2021/03/23 09:34:13;;;;;;;9.27;8.03;;;7.60;99.90;;;;;;483691;245;28405;-76
2021/03/23 09:36:17;;;;;;;13.60;9.20;;;7.50;99.90;;;;;;486021;243;27855;-76
2021/03/23 09:38:16;;;;;;;13.00;9.23;;;7.60;99.90;;;;;;485993;243;27841;-76
2021/03/23 09:40:16;;;;;;;11.80;8.37;;;7.60;99.90;;;;;;486026;243;27592;-76
2021/03/23 09:42:18;;;;;;;11.57;8.63;;;7.80;99.90;;;;;;485979;243;27954;-75
2021/03/23 09:44:22;;;;;;;12.40;8.83;;;8.10;99.90;;;;;;486035;243;28004;-75
2021/03/23 09:46:20;;;;;;;13.03;9.27;;;8.20;99.90;;;;;;486040;243;27938;-77
2021/03/23 09:48:21;;;;;;;14.40;10.03;;;8.20;99.90;;;;;;486002;243;28082;-74
2021/03/23 09:50:23;;;;;;;15.20;9.60;;;8.20;99.90;;;;;;486044;243;27570;-75
2021/03/23 09:52:24;;;;;;;17.20;10.10;;;8.40;99.90;;;;;;486038;245;28752;-75
2021/03/23 09:54:25;;;;;;;17.17;10.50;;;8.50;99.90;;;;;;486013;243;28409;-75
2021/03/23 09:56:26;;;;;;;14.73;10.03;;;8.40;99.90;;;;;;486758;243;28763;-75
2021/03/23 09:58:28;;;;;;;16.33;10.40;;;8.50;99.90;;;;;;489121;243;27959;-76
2021/03/23 10:00:29;;;;;;;13.67;10.10;;;8.60;99.90;;;;;;489067;243;27547;-74
2021/03/23 10:02:31;;;;;;;16.70;10.30;;;8.70;99.90;;;;;;489129;243;27312;-76
2021/03/23 10:04:31;;;;;;;15.13;9.73;;;8.70;99.90;;;;;;489097;243;27864;-76
2021/03/23 10:06:33;;;;;;;11.80;9.03;;;8.70;99.90;;;;;;489052;243;27877;-75
2021/03/23 10:08:36;;;;;;;15.80;9.17;;;8.70;99.90;;;;;;481653;243;27996;-76
2021/03/23 10:10:35;;;;;;;15.30;10.20;;;8.70;99.90;;;;;;489098;240;27635;-76
2021/03/23 10:12:36;;;;;;;15.20;10.00;;;8.60;99.90;;;;;;489086;243;27727;-75
2021/03/23 10:14:38;;;;;;;17.03;9.00;;;8.80;99.90;;;;;;489079;243;28308;-75
2021/03/23 10:16:39;;;;;;;22.63;9.67;;;8.90;99.90;;;;;;489081;243;28528;-75
2021/03/23 10:18:41;;;;;;;28.87;10.60;;;9.00;99.90;;;;;;489108;241;28251;-75
2021/03/23 10:20:42;;;;;;;17.80;10.17;;;9.20;99.90;;;;;;489055;243;27853;-75
2021/03/23 10:22:43;;;;;;;18.03;10.30;;;9.40;99.90;;;;;;489025;243;27734;-75